sensor_id;sensor_type;location;lat;lon;timestamp;P1;durP1;ratioP1;P2;durP2;ratioP2
53253;SDS011;39148;53.332;6.922;2023-02-03T00:00:31;4.72;;;1.13;;
53253;SDS011;39148;53.332;6.922;2023-02-03T00:02:57;6.95;;;1.10;;
53253;SDS011;39148;53.332;6.922;2023-02-03T00:05:23;6.40;;;1.20;;
53253;SDS011;39148;53.332;6.922;2023-02-03T00:07:49;6.03;;;1.08;;
53253;SDS011;39148;53.332;6.922;2023-02-03T00:10:16;5.28;;;0.88;;
53253;SDS011;39148;53.332;6.922;2023-02-03T00:12:48;7.50;;;1.00;;
53253;SDS011;39148;53.332;6.922;2023-02-03T00:15:15;6.75;;;1.17;;
53253;SDS011;39148;53.332;6.922;2023-02-03T00:17:41;5.97;;;1.00;;
53253;SDS011;39148;53.332;6.922;2023-02-03T00:20:07;5.70;;;1.10;;
53253;SDS011;39148;53.332;6.922;2023-02-03T00:22:34;5.97;;;1.40;;
53253;SDS011;39148;53.332;6.922;2023-02-03T00:25:00;5.35;;;1.10;;
53253;SDS011;39148;53.332;6.922;2023-02-03T00:27:26;5.07;;;1.00;;
53253;SDS011;39148;53.332;6.922;2023-02-03T00:29:52;3.63;;;0.90;;
53253;SDS011;39148;53.332;6.922;2023-02-03T00:32:18;4.90;;;0.88;;
53253;SDS011;39148;53.332;6.922;2023-02-03T00:34:44;7.18;;;1.38;;
53253;SDS011;39148;53.332;6.922;2023-02-03T00:37:13;5.97;;;1.10;;
53253;SDS011;39148;53.332;6.922;2023-02-03T00:39:39;6.95;;;1.15;;
53253;SDS011;39148;53.332;6.922;2023-02-03T00:42:05;4.63;;;0.80;;
53253;SDS011;39148;53.332;6.922;2023-02-03T00:44:31;5.07;;;1.00;;
53253;SDS011;39148;53.332;6.922;2023-02-03T00:46:58;6.28;;;0.95;;
53253;SDS011;39148;53.332;6.922;2023-02-03T00:49:24;6.57;;;1.45;;
53253;SDS011;39148;53.332;6.922;2023-02-03T00:51:50;6.90;;;1.33;;
53253;SDS011;39148;53.332;6.922;2023-02-03T00:54:16;5.05;;;0.88;;
53253;SDS011;39148;53.332;6.922;2023-02-03T00:56:42;7.63;;;1.40;;
53253;SDS011;39148;53.332;6.922;2023-02-03T00:59:08;6.05;;;1.10;;
53253;SDS011;39148;53.332;6.922;2023-02-03T01:01:34;5.82;;;1.00;;
53253;SDS011;39148;53.332;6.922;2023-02-03T01:04:01;7.82;;;1.10;;
53253;SDS011;39148;53.332;6.922;2023-02-03T01:06:27;6.35;;;1.05;;
53253;SDS011;39148;53.332;6.922;2023-02-03T01:08:53;7.35;;;0.95;;
53253;SDS011;39148;53.332;6.922;2023-02-03T01:11:20;6.20;;;1.00;;
53253;SDS011;39148;53.332;6.922;2023-02-03T01:13:46;8.98;;;1.52;;
53253;SDS011;39148;53.332;6.922;2023-02-03T01:16:15;6.63;;;1.30;;
53253;SDS011;39148;53.332;6.922;2023-02-03T01:18:43;8.65;;;1.35;;
53253;SDS011;39148;53.332;6.922;2023-02-03T01:21:10;8.10;;;1.40;;
53253;SDS011;39148;53.332;6.922;2023-02-03T01:23:38;8.35;;;1.08;;
53253;SDS011;39148;53.332;6.922;2023-02-03T01:26:04;8.20;;;1.40;;
53253;SDS011;39148;53.332;6.922;2023-02-03T01:28:35;5.93;;;1.00;;
53253;SDS011;39148;53.332;6.922;2023-02-03T01:31:11;7.80;;;1.38;;
53253;SDS011;39148;53.332;6.922;2023-02-03T01:33:44;5.07;;;1.00;;
53253;SDS011;39148;53.332;6.922;2023-02-03T01:36:13;5.07;;;1.00;;
53253;SDS011;39148;53.332;6.922;2023-02-03T01:38:40;7.03;;;1.15;;
53253;SDS011;39148;53.332;6.922;2023-02-03T01:41:06;5.57;;;0.90;;
53253;SDS011;39148;53.332;6.922;2023-02-03T01:43:39;5.38;;;0.93;;
53253;SDS011;39148;53.332;6.922;2023-02-03T01:49:18;6.75;;;1.15;;
53253;SDS011;39148;53.332;6.922;2023-02-03T01:51:44;6.40;;;1.30;;
53253;SDS011;39148;53.332;6.922;2023-02-03T01:54:12;8.77;;;1.50;;
53253;SDS011;39148;53.332;6.922;2023-02-03T01:56:40;5.60;;;1.13;;
53253;SDS011;39148;53.332;6.922;2023-02-03T01:59:10;8.35;;;1.27;;
53253;SDS011;39148;53.332;6.922;2023-02-03T02:01:36;7.75;;;1.20;;
53253;SDS011;39148;53.332;6.922;2023-02-03T02:04:03;8.07;;;1.38;;
53253;SDS011;39148;53.332;6.922;2023-02-03T02:06:29;5.80;;;1.15;;
53253;SDS011;39148;53.332;6.922;2023-02-03T02:08:56;7.28;;;1.13;;
53253;SDS011;39148;53.332;6.922;2023-02-03T02:11:24;5.45;;;1.25;;
53253;SDS011;39148;53.332;6.922;2023-02-03T02:13:51;7.82;;;1.70;;
53253;SDS011;39148;53.332;6.922;2023-02-03T02:16:24;6.72;;;1.55;;
53253;SDS011;39148;53.332;6.922;2023-02-03T02:27:02;8.43;;;1.35;;
53253;SDS011;39148;53.332;6.922;2023-02-03T02:37:08;7.30;;;1.20;;
53253;SDS011;39148;53.332;6.922;2023-02-03T02:39:44;5.50;;;1.30;;
53253;SDS011;39148;53.332;6.922;2023-02-03T02:44:45;7.75;;;1.30;;
53253;SDS011;39148;53.332;6.922;2023-02-03T02:47:17;8.13;;;1.30;;
53253;SDS011;39148;53.332;6.922;2023-02-03T02:50:00;5.20;;;1.15;;
53253;SDS011;39148;53.332;6.922;2023-02-03T02:52:30;10.35;;;2.22;;
53253;SDS011;39148;53.332;6.922;2023-02-03T02:54:59;12.30;;;1.45;;
53253;SDS011;39148;53.332;6.922;2023-02-03T02:57:50;8.10;;;1.48;;
53253;SDS011;39148;53.332;6.922;2023-02-03T03:00:16;8.20;;;1.27;;
53253;SDS011;39148;53.332;6.922;2023-02-03T03:02:43;9.13;;;1.50;;
53253;SDS011;39148;53.332;6.922;2023-02-03T03:05:09;7.18;;;1.10;;
53253;SDS011;39148;53.332;6.922;2023-02-03T03:07:40;6.95;;;1.30;;
53253;SDS011;39148;53.332;6.922;2023-02-03T03:10:09;8.10;;;1.40;;
53253;SDS011;39148;53.332;6.922;2023-02-03T03:12:37;8.90;;;1.35;;
53253;SDS011;39148;53.332;6.922;2023-02-03T03:15:10;9.45;;;1.75;;
53253;SDS011;39148;53.332;6.922;2023-02-03T03:17:48;9.90;;;1.42;;
53253;SDS011;39148;53.332;6.922;2023-02-03T03:20:25;10.90;;;1.63;;
53253;SDS011;39148;53.332;6.922;2023-02-03T03:22:54;10.32;;;2.03;;
53253;SDS011;39148;53.332;6.922;2023-02-03T03:25:26;8.25;;;1.25;;
53253;SDS011;39148;53.332;6.922;2023-02-03T03:27:55;9.98;;;1.60;;
53253;SDS011;39148;53.332;6.922;2023-02-03T03:30:22;7.47;;;1.50;;
53253;SDS011;39148;53.332;6.922;2023-02-03T03:32:50;9.73;;;1.45;;
53253;SDS011;39148;53.332;6.922;2023-02-03T03:35:16;6.75;;;1.05;;
53253;SDS011;39148;53.332;6.922;2023-02-03T03:37:43;5.00;;;1.20;;
53253;SDS011;39148;53.332;6.922;2023-02-03T03:40:16;6.57;;;1.23;;
53253;SDS011;39148;53.332;6.922;2023-02-03T03:42:44;10.43;;;1.67;;
53253;SDS011;39148;53.332;6.922;2023-02-03T03:45:21;10.15;;;1.38;;
53253;SDS011;39148;53.332;6.922;2023-02-03T03:47:56;10.35;;;1.58;;
53253;SDS011;39148;53.332;6.922;2023-02-03T03:50:33;9.88;;;1.67;;
53253;SDS011;39148;53.332;6.922;2023-02-03T03:53:00;8.90;;;1.42;;
53253;SDS011;39148;53.332;6.922;2023-02-03T03:55:29;12.05;;;1.58;;
53253;SDS011;39148;53.332;6.922;2023-02-03T03:58:00;9.43;;;1.42;;
53253;SDS011;39148;53.332;6.922;2023-02-03T04:00:29;9.50;;;1.67;;
53253;SDS011;39148;53.332;6.922;2023-02-03T04:02:59;9.80;;;1.60;;
53253;SDS011;39148;53.332;6.922;2023-02-03T04:05:26;7.00;;;1.10;;
53253;SDS011;39148;53.332;6.922;2023-02-03T04:07:52;7.07;;;1.17;;
53253;SDS011;39148;53.332;6.922;2023-02-03T04:12:50;10.68;;;1.67;;
53253;SDS011;39148;53.332;6.922;2023-02-03T04:15:16;7.22;;;1.75;;
53253;SDS011;39148;53.332;6.922;2023-02-03T04:17:42;10.40;;;1.88;;
53253;SDS011;39148;53.332;6.922;2023-02-03T04:20:09;7.88;;;1.30;;
53253;SDS011;39148;53.332;6.922;2023-02-03T04:22:35;9.07;;;1.38;;
53253;SDS011;39148;53.332;6.922;2023-02-03T04:25:00;7.65;;;1.50;;
53253;SDS011;39148;53.332;6.922;2023-02-03T04:27:27;8.48;;;1.30;;
53253;SDS011;39148;53.332;6.922;2023-02-03T04:29:53;8.30;;;1.50;;
53253;SDS011;39148;53.332;6.922;2023-02-03T04:32:18;8.73;;;1.10;;
53253;SDS011;39148;53.332;6.922;2023-02-03T04:34:45;8.32;;;1.52;;
53253;SDS011;39148;53.332;6.922;2023-02-03T04:37:11;7.22;;;1.15;;
53253;SDS011;39148;53.332;6.922;2023-02-03T04:39:37;9.00;;;1.40;;
53253;SDS011;39148;53.332;6.922;2023-02-03T04:42:03;9.32;;;1.40;;
53253;SDS011;39148;53.332;6.922;2023-02-03T04:44:29;8.18;;;1.40;;
53253;SDS011;39148;53.332;6.922;2023-02-03T04:46:55;10.32;;;1.83;;
53253;SDS011;39148;53.332;6.922;2023-02-03T04:49:21;8.18;;;1.50;;
53253;SDS011;39148;53.332;6.922;2023-02-03T04:51:47;8.55;;;1.20;;
53253;SDS011;39148;53.332;6.922;2023-02-03T04:54:13;7.38;;;1.40;;
53253;SDS011;39148;53.332;6.922;2023-02-03T04:56:40;10.18;;;1.50;;
53253;SDS011;39148;53.332;6.922;2023-02-03T04:59:06;6.93;;;1.20;;
53253;SDS011;39148;53.332;6.922;2023-02-03T05:01:32;11.52;;;1.70;;
53253;SDS011;39148;53.332;6.922;2023-02-03T05:03:58;8.60;;;1.33;;
53253;SDS011;39148;53.332;6.922;2023-02-03T05:06:24;7.90;;;1.30;;
53253;SDS011;39148;53.332;6.922;2023-02-03T05:08:51;10.63;;;1.52;;
53253;SDS011;39148;53.332;6.922;2023-02-03T05:11:17;7.45;;;1.35;;
53253;SDS011;39148;53.332;6.922;2023-02-03T05:13:44;8.35;;;1.65;;
53253;SDS011;39148;53.332;6.922;2023-02-03T05:16:09;7.85;;;1.40;;
53253;SDS011;39148;53.332;6.922;2023-02-03T05:18:35;9.65;;;1.77;;
53253;SDS011;39148;53.332;6.922;2023-02-03T05:21:01;7.60;;;1.52;;
53253;SDS011;39148;53.332;6.922;2023-02-03T05:23:27;6.18;;;1.13;;
53253;SDS011;39148;53.332;6.922;2023-02-03T05:25:53;9.55;;;1.58;;
53253;SDS011;39148;53.332;6.922;2023-02-03T05:28:18;8.50;;;1.50;;
53253;SDS011;39148;53.332;6.922;2023-02-03T05:30:44;7.55;;;1.23;;
53253;SDS011;39148;53.332;6.922;2023-02-03T05:33:10;8.35;;;1.60;;
53253;SDS011;39148;53.332;6.922;2023-02-03T05:35:36;7.65;;;1.65;;
53253;SDS011;39148;53.332;6.922;2023-02-03T05:38:02;9.45;;;1.67;;
53253;SDS011;39148;53.332;6.922;2023-02-03T05:40:27;9.48;;;1.25;;
53253;SDS011;39148;53.332;6.922;2023-02-03T05:43:12;7.22;;;1.17;;
53253;SDS011;39148;53.332;6.922;2023-02-03T05:45:38;9.43;;;1.77;;
53253;SDS011;39148;53.332;6.922;2023-02-03T05:48:03;11.15;;;1.92;;
53253;SDS011;39148;53.332;6.922;2023-02-03T05:50:31;9.02;;;1.70;;
53253;SDS011;39148;53.332;6.922;2023-02-03T05:53:03;8.07;;;1.50;;
53253;SDS011;39148;53.332;6.922;2023-02-03T05:55:30;9.55;;;1.50;;
53253;SDS011;39148;53.332;6.922;2023-02-03T05:57:56;5.78;;;1.25;;
53253;SDS011;39148;53.332;6.922;2023-02-03T06:00:24;9.30;;;1.30;;
53253;SDS011;39148;53.332;6.922;2023-02-03T06:02:53;9.50;;;2.05;;
53253;SDS011;39148;53.332;6.922;2023-02-03T06:05:24;7.75;;;1.65;;
53253;SDS011;39148;53.332;6.922;2023-02-03T06:07:50;9.57;;;1.70;;
53253;SDS011;39148;53.332;6.922;2023-02-03T06:10:17;7.82;;;1.70;;
53253;SDS011;39148;53.332;6.922;2023-02-03T06:12:43;10.50;;;1.67;;
53253;SDS011;39148;53.332;6.922;2023-02-03T06:15:09;12.77;;;2.00;;
53253;SDS011;39148;53.332;6.922;2023-02-03T06:17:36;10.07;;;1.67;;
53253;SDS011;39148;53.332;6.922;2023-02-03T06:20:03;8.95;;;1.48;;
53253;SDS011;39148;53.332;6.922;2023-02-03T06:22:29;9.65;;;1.85;;
53253;SDS011;39148;53.332;6.922;2023-02-03T06:24:55;13.20;;;1.90;;
53253;SDS011;39148;53.332;6.922;2023-02-03T06:27:21;13.30;;;2.28;;
53253;SDS011;39148;53.332;6.922;2023-02-03T06:29:47;12.80;;;1.90;;
53253;SDS011;39148;53.332;6.922;2023-02-03T06:32:14;7.72;;;1.70;;
53253;SDS011;39148;53.332;6.922;2023-02-03T06:34:40;9.73;;;1.83;;
53253;SDS011;39148;53.332;6.922;2023-02-03T06:37:05;12.93;;;2.00;;
53253;SDS011;39148;53.332;6.922;2023-02-03T06:39:31;8.75;;;1.63;;
53253;SDS011;39148;53.332;6.922;2023-02-03T06:41:57;14.93;;;1.88;;
53253;SDS011;39148;53.332;6.922;2023-02-03T06:44:24;9.20;;;1.88;;
53253;SDS011;39148;53.332;6.922;2023-02-03T06:46:50;12.02;;;2.20;;
53253;SDS011;39148;53.332;6.922;2023-02-03T06:49:16;12.82;;;2.28;;
53253;SDS011;39148;53.332;6.922;2023-02-03T06:51:43;12.73;;;2.78;;
53253;SDS011;39148;53.332;6.922;2023-02-03T06:54:10;12.38;;;2.03;;
53253;SDS011;39148;53.332;6.922;2023-02-03T06:56:36;14.45;;;2.53;;
53253;SDS011;39148;53.332;6.922;2023-02-03T06:59:02;12.20;;;2.40;;
53253;SDS011;39148;53.332;6.922;2023-02-03T07:01:28;12.25;;;2.30;;
53253;SDS011;39148;53.332;6.922;2023-02-03T07:03:55;10.45;;;1.73;;
53253;SDS011;39148;53.332;6.922;2023-02-03T07:06:25;11.60;;;2.13;;
53253;SDS011;39148;53.332;6.922;2023-02-03T07:11:20;13.40;;;2.63;;
53253;SDS011;39148;53.332;6.922;2023-02-03T07:13:47;9.18;;;1.77;;
53253;SDS011;39148;53.332;6.922;2023-02-03T07:16:13;11.48;;;2.00;;
53253;SDS011;39148;53.332;6.922;2023-02-03T07:18:39;11.50;;;1.95;;
53253;SDS011;39148;53.332;6.922;2023-02-03T07:21:05;11.82;;;2.05;;
53253;SDS011;39148;53.332;6.922;2023-02-03T07:23:32;15.65;;;2.42;;
53253;SDS011;39148;53.332;6.922;2023-02-03T07:25:58;11.80;;;2.20;;
53253;SDS011;39148;53.332;6.922;2023-02-03T07:28:25;13.40;;;2.42;;
53253;SDS011;39148;53.332;6.922;2023-02-03T07:30:51;11.68;;;2.72;;
53253;SDS011;39148;53.332;6.922;2023-02-03T07:33:17;13.18;;;2.60;;
53253;SDS011;39148;53.332;6.922;2023-02-03T07:35:43;12.70;;;2.20;;
53253;SDS011;39148;53.332;6.922;2023-02-03T07:38:09;12.93;;;2.45;;
53253;SDS011;39148;53.332;6.922;2023-02-03T07:40:36;14.88;;;2.42;;
53253;SDS011;39148;53.332;6.922;2023-02-03T07:43:02;14.23;;;2.38;;
53253;SDS011;39148;53.332;6.922;2023-02-03T07:45:28;11.40;;;1.83;;
53253;SDS011;39148;53.332;6.922;2023-02-03T07:47:54;14.43;;;2.50;;
53253;SDS011;39148;53.332;6.922;2023-02-03T07:50:19;11.57;;;2.03;;
53253;SDS011;39148;53.332;6.922;2023-02-03T07:52:46;12.82;;;2.28;;
53253;SDS011;39148;53.332;6.922;2023-02-03T07:55:13;15.88;;;2.45;;
53253;SDS011;39148;53.332;6.922;2023-02-03T07:57:39;11.25;;;2.33;;
53253;SDS011;39148;53.332;6.922;2023-02-03T08:00:08;13.05;;;2.13;;
53253;SDS011;39148;53.332;6.922;2023-02-03T08:02:34;14.95;;;2.30;;
53253;SDS011;39148;53.332;6.922;2023-02-03T08:05:00;13.43;;;2.28;;
53253;SDS011;39148;53.332;6.922;2023-02-03T08:07:25;14.48;;;2.58;;
53253;SDS011;39148;53.332;6.922;2023-02-03T08:09:52;13.48;;;2.33;;
53253;SDS011;39148;53.332;6.922;2023-02-03T08:12:18;12.70;;;2.42;;
53253;SDS011;39148;53.332;6.922;2023-02-03T08:14:43;16.60;;;2.75;;
53253;SDS011;39148;53.332;6.922;2023-02-03T08:17:09;12.45;;;2.30;;
53253;SDS011;39148;53.332;6.922;2023-02-03T08:19:35;13.77;;;2.72;;
53253;SDS011;39148;53.332;6.922;2023-02-03T08:22:02;15.00;;;2.70;;
53253;SDS011;39148;53.332;6.922;2023-02-03T08:24:27;17.50;;;2.38;;
53253;SDS011;39148;53.332;6.922;2023-02-03T08:26:53;17.88;;;3.72;;
53253;SDS011;39148;53.332;6.922;2023-02-03T08:29:19;14.75;;;2.65;;
53253;SDS011;39148;53.332;6.922;2023-02-03T08:31:45;15.60;;;2.88;;
53253;SDS011;39148;53.332;6.922;2023-02-03T08:34:11;16.95;;;2.50;;
53253;SDS011;39148;53.332;6.922;2023-02-03T08:36:37;16.65;;;2.63;;
53253;SDS011;39148;53.332;6.922;2023-02-03T08:39:04;16.02;;;2.13;;
53253;SDS011;39148;53.332;6.922;2023-02-03T08:41:31;16.63;;;3.13;;
53253;SDS011;39148;53.332;6.922;2023-02-03T08:43:58;16.05;;;2.65;;
53253;SDS011;39148;53.332;6.922;2023-02-03T08:46:25;18.10;;;3.13;;
53253;SDS011;39148;53.332;6.922;2023-02-03T08:48:52;16.50;;;3.20;;
53253;SDS011;39148;53.332;6.922;2023-02-03T08:51:20;15.63;;;3.00;;
53253;SDS011;39148;53.332;6.922;2023-02-03T08:53:46;18.27;;;2.58;;
53253;SDS011;39148;53.332;6.922;2023-02-03T08:56:13;18.05;;;4.07;;
53253;SDS011;39148;53.332;6.922;2023-02-03T08:58:39;17.73;;;3.20;;
53253;SDS011;39148;53.332;6.922;2023-02-03T09:01:05;17.88;;;3.25;;
53253;SDS011;39148;53.332;6.922;2023-02-03T09:03:38;17.17;;;3.10;;
53253;SDS011;39148;53.332;6.922;2023-02-03T09:06:05;17.90;;;3.10;;
53253;SDS011;39148;53.332;6.922;2023-02-03T09:08:31;16.92;;;3.13;;
53253;SDS011;39148;53.332;6.922;2023-02-03T09:10:57;19.55;;;3.65;;
53253;SDS011;39148;53.332;6.922;2023-02-03T09:13:23;17.60;;;3.67;;
53253;SDS011;39148;53.332;6.922;2023-02-03T09:15:49;18.02;;;3.28;;
53253;SDS011;39148;53.332;6.922;2023-02-03T09:18:15;18.08;;;3.00;;
53253;SDS011;39148;53.332;6.922;2023-02-03T09:20:41;17.75;;;3.67;;
53253;SDS011;39148;53.332;6.922;2023-02-03T09:23:07;22.70;;;3.50;;
53253;SDS011;39148;53.332;6.922;2023-02-03T09:25:33;21.65;;;3.60;;
53253;SDS011;39148;53.332;6.922;2023-02-03T09:28:02;21.10;;;4.10;;
53253;SDS011;39148;53.332;6.922;2023-02-03T09:30:28;23.55;;;3.90;;
53253;SDS011;39148;53.332;6.922;2023-02-03T09:32:54;16.58;;;2.92;;
53253;SDS011;39148;53.332;6.922;2023-02-03T09:35:20;23.60;;;3.60;;
53253;SDS011;39148;53.332;6.922;2023-02-03T09:37:46;19.73;;;3.65;;
53253;SDS011;39148;53.332;6.922;2023-02-03T09:40:34;18.75;;;3.47;;
53253;SDS011;39148;53.332;6.922;2023-02-03T09:45:37;22.13;;;4.07;;
53253;SDS011;39148;53.332;6.922;2023-02-03T09:48:05;23.38;;;4.20;;
53253;SDS011;39148;53.332;6.922;2023-02-03T09:50:37;20.65;;;3.97;;
53253;SDS011;39148;53.332;6.922;2023-02-03T09:53:32;21.83;;;4.20;;
53253;SDS011;39148;53.332;6.922;2023-02-03T09:55:52;23.88;;;4.18;;
53253;SDS011;39148;53.332;6.922;2023-02-03T09:58:18;20.60;;;4.05;;
53253;SDS011;39148;53.332;6.922;2023-02-03T10:00:55;24.38;;;4.65;;
53253;SDS011;39148;53.332;6.922;2023-02-03T10:08:46;21.20;;;3.83;;
53253;SDS011;39148;53.332;6.922;2023-02-03T10:11:39;25.15;;;4.88;;
53253;SDS011;39148;53.332;6.922;2023-02-03T10:14:23;27.67;;;4.93;;
53253;SDS011;39148;53.332;6.922;2023-02-03T10:19:19;22.02;;;4.22;;
53253;SDS011;39148;53.332;6.922;2023-02-03T10:21:51;27.55;;;4.60;;
53253;SDS011;39148;53.332;6.922;2023-02-03T10:24:41;20.77;;;3.67;;
53253;SDS011;39148;53.332;6.922;2023-02-03T10:27:09;21.95;;;3.90;;
53253;SDS011;39148;53.332;6.922;2023-02-03T10:29:41;21.70;;;4.13;;
53253;SDS011;39148;53.332;6.922;2023-02-03T10:32:10;24.85;;;4.53;;
53253;SDS011;39148;53.332;6.922;2023-02-03T10:34:37;23.33;;;4.68;;
53253;SDS011;39148;53.332;6.922;2023-02-03T10:39:49;28.30;;;4.72;;
53253;SDS011;39148;53.332;6.922;2023-02-03T10:42:16;29.85;;;4.57;;
53253;SDS011;39148;53.332;6.922;2023-02-03T10:49:40;27.83;;;5.00;;
53253;SDS011;39148;53.332;6.922;2023-02-03T10:52:07;24.60;;;5.18;;
53253;SDS011;39148;53.332;6.922;2023-02-03T10:54:50;26.25;;;5.45;;
53253;SDS011;39148;53.332;6.922;2023-02-03T10:57:15;22.65;;;3.90;;
53253;SDS011;39148;53.332;6.922;2023-02-03T10:59:42;23.17;;;4.32;;
53253;SDS011;39148;53.332;6.922;2023-02-03T11:02:20;30.13;;;4.70;;
53253;SDS011;39148;53.332;6.922;2023-02-03T11:04:46;28.63;;;5.40;;
53253;SDS011;39148;53.332;6.922;2023-02-03T11:07:24;34.47;;;5.15;;
53253;SDS011;39148;53.332;6.922;2023-02-03T11:09:51;25.38;;;4.57;;
53253;SDS011;39148;53.332;6.922;2023-02-03T11:12:17;31.10;;;5.60;;
53253;SDS011;39148;53.332;6.922;2023-02-03T11:14:48;28.17;;;4.55;;
53253;SDS011;39148;53.332;6.922;2023-02-03T11:17:21;25.20;;;4.63;;
53253;SDS011;39148;53.332;6.922;2023-02-03T11:19:52;26.17;;;4.50;;
53253;SDS011;39148;53.332;6.922;2023-02-03T11:22:29;26.80;;;4.93;;
53253;SDS011;39148;53.332;6.922;2023-02-03T11:24:58;24.20;;;4.55;;
53253;SDS011;39148;53.332;6.922;2023-02-03T11:27:24;28.70;;;5.55;;
53253;SDS011;39148;53.332;6.922;2023-02-03T11:30:05;25.10;;;4.20;;
53253;SDS011;39148;53.332;6.922;2023-02-03T11:32:35;29.60;;;4.90;;
53253;SDS011;39148;53.332;6.922;2023-02-03T11:35:25;27.88;;;5.47;;
53253;SDS011;39148;53.332;6.922;2023-02-03T12:01:20;32.58;;;5.95;;
53253;SDS011;39148;53.332;6.922;2023-02-03T12:14:01;27.77;;;4.93;;
53253;SDS011;39148;53.332;6.922;2023-02-03T12:21:50;28.75;;;4.90;;
53253;SDS011;39148;53.332;6.922;2023-02-03T12:27:24;29.85;;;5.63;;
53253;SDS011;39148;53.332;6.922;2023-02-03T12:30:03;32.95;;;5.85;;
53253;SDS011;39148;53.332;6.922;2023-02-03T12:35:11;28.38;;;5.18;;
53253;SDS011;39148;53.332;6.922;2023-02-03T12:42:56;27.00;;;4.65;;
53253;SDS011;39148;53.332;6.922;2023-02-03T12:45:27;29.23;;;4.45;;
53253;SDS011;39148;53.332;6.922;2023-02-03T12:47:55;26.05;;;5.10;;
53253;SDS011;39148;53.332;6.922;2023-02-03T12:50:48;28.05;;;4.82;;
53253;SDS011;39148;53.332;6.922;2023-02-03T12:53:20;25.95;;;4.88;;
53253;SDS011;39148;53.332;6.922;2023-02-03T12:56:13;29.15;;;5.03;;
53253;SDS011;39148;53.332;6.922;2023-02-03T12:58:42;32.22;;;4.97;;
53253;SDS011;39148;53.332;6.922;2023-02-03T13:01:19;30.80;;;5.15;;
53253;SDS011;39148;53.332;6.922;2023-02-03T13:03:51;20.48;;;3.75;;
53253;SDS011;39148;53.332;6.922;2023-02-03T13:06:24;22.58;;;4.30;;
53253;SDS011;39148;53.332;6.922;2023-02-03T13:11:31;22.90;;;3.70;;
53253;SDS011;39148;53.332;6.922;2023-02-03T13:14:09;24.42;;;4.60;;
53253;SDS011;39148;53.332;6.922;2023-02-03T13:16:52;23.70;;;4.43;;
53253;SDS011;39148;53.332;6.922;2023-02-03T13:19:20;26.48;;;5.03;;
53253;SDS011;39148;53.332;6.922;2023-02-03T13:21:48;28.08;;;4.80;;
53253;SDS011;39148;53.332;6.922;2023-02-03T13:24:14;29.20;;;5.30;;
53253;SDS011;39148;53.332;6.922;2023-02-03T13:37:10;26.77;;;5.32;;
53253;SDS011;39148;53.332;6.922;2023-02-03T13:44:44;32.60;;;5.07;;
53253;SDS011;39148;53.332;6.922;2023-02-03T13:47:14;29.88;;;5.22;;
53253;SDS011;39148;53.332;6.922;2023-02-03T13:49:41;26.88;;;5.30;;
53253;SDS011;39148;53.332;6.922;2023-02-03T13:55:05;26.25;;;4.88;;
53253;SDS011;39148;53.332;6.922;2023-02-03T13:57:36;31.27;;;5.20;;
53253;SDS011;39148;53.332;6.922;2023-02-03T14:00:05;31.45;;;4.93;;
53253;SDS011;39148;53.332;6.922;2023-02-03T14:02:52;27.45;;;5.18;;
53253;SDS011;39148;53.332;6.922;2023-02-03T14:05:41;26.67;;;4.85;;
53253;SDS011;39148;53.332;6.922;2023-02-03T14:13:37;28.92;;;5.40;;
53253;SDS011;39148;53.332;6.922;2023-02-03T14:16:22;29.13;;;5.32;;
53253;SDS011;39148;53.332;6.922;2023-02-03T14:18:48;32.78;;;5.53;;
53253;SDS011;39148;53.332;6.922;2023-02-03T14:21:18;24.75;;;5.07;;
53253;SDS011;39148;53.332;6.922;2023-02-03T14:23:47;26.88;;;5.53;;
53253;SDS011;39148;53.332;6.922;2023-02-03T14:26:42;29.90;;;5.07;;
53253;SDS011;39148;53.332;6.922;2023-02-03T14:29:21;29.13;;;4.97;;
53253;SDS011;39148;53.332;6.922;2023-02-03T14:31:54;27.73;;;4.90;;
53253;SDS011;39148;53.332;6.922;2023-02-03T14:37:41;27.42;;;5.65;;
53253;SDS011;39148;53.332;6.922;2023-02-03T14:45:00;29.45;;;4.68;;
53253;SDS011;39148;53.332;6.922;2023-02-03T14:58:05;24.45;;;4.53;;
53253;SDS011;39148;53.332;6.922;2023-02-03T15:00:33;24.83;;;4.28;;
53253;SDS011;39148;53.332;6.922;2023-02-03T15:05:36;23.08;;;3.90;;
53253;SDS011;39148;53.332;6.922;2023-02-03T15:08:02;23.30;;;4.13;;
53253;SDS011;39148;53.332;6.922;2023-02-03T15:13:03;21.77;;;3.95;;
53253;SDS011;39148;53.332;6.922;2023-02-03T15:15:30;24.83;;;4.85;;
53253;SDS011;39148;53.332;6.922;2023-02-03T15:18:18;31.50;;;6.27;;
53253;SDS011;39148;53.332;6.922;2023-02-03T15:20:46;27.35;;;4.85;;
53253;SDS011;39148;53.332;6.922;2023-02-03T15:23:19;25.33;;;4.63;;
53253;SDS011;39148;53.332;6.922;2023-02-03T15:25:53;25.95;;;4.78;;
53253;SDS011;39148;53.332;6.922;2023-02-03T15:28:20;29.60;;;5.07;;
53253;SDS011;39148;53.332;6.922;2023-02-03T15:30:48;23.77;;;4.20;;
53253;SDS011;39148;53.332;6.922;2023-02-03T15:33:18;26.95;;;4.57;;
53253;SDS011;39148;53.332;6.922;2023-02-03T15:35:46;21.23;;;4.60;;
53253;SDS011;39148;53.332;6.922;2023-02-03T15:38:19;26.08;;;5.07;;
53253;SDS011;39148;53.332;6.922;2023-02-03T15:40:50;22.90;;;4.78;;
53253;SDS011;39148;53.332;6.922;2023-02-03T15:43:37;23.52;;;4.07;;
53253;SDS011;39148;53.332;6.922;2023-02-03T15:46:08;24.17;;;3.92;;
53253;SDS011;39148;53.332;6.922;2023-02-03T15:48:55;24.88;;;4.30;;
53253;SDS011;39148;53.332;6.922;2023-02-03T15:51:25;26.95;;;5.10;;
53253;SDS011;39148;53.332;6.922;2023-02-03T15:59:25;26.55;;;5.15;;
53253;SDS011;39148;53.332;6.922;2023-02-03T16:04:17;22.80;;;4.05;;
53253;SDS011;39148;53.332;6.922;2023-02-03T16:06:45;21.58;;;4.97;;
53253;SDS011;39148;53.332;6.922;2023-02-03T16:09:32;23.13;;;4.10;;
53253;SDS011;39148;53.332;6.922;2023-02-03T16:12:03;18.13;;;3.63;;
53253;SDS011;39148;53.332;6.922;2023-02-03T16:14:34;21.85;;;4.18;;
53253;SDS011;39148;53.332;6.922;2023-02-03T16:17:00;23.02;;;3.70;;
53253;SDS011;39148;53.332;6.922;2023-02-03T16:19:27;27.02;;;5.40;;
53253;SDS011;39148;53.332;6.922;2023-02-03T16:21:56;23.13;;;4.20;;
53253;SDS011;39148;53.332;6.922;2023-02-03T16:24:41;22.33;;;3.95;;
53253;SDS011;39148;53.332;6.922;2023-02-03T16:30:14;24.23;;;4.40;;
53253;SDS011;39148;53.332;6.922;2023-02-03T16:33:00;24.13;;;4.13;;
53253;SDS011;39148;53.332;6.922;2023-02-03T16:35:46;23.02;;;4.07;;
53253;SDS011;39148;53.332;6.922;2023-02-03T16:38:31;26.15;;;4.60;;
53253;SDS011;39148;53.332;6.922;2023-02-03T16:41:16;21.40;;;3.83;;
53253;SDS011;39148;53.332;6.922;2023-02-03T16:44:01;24.48;;;5.20;;
53253;SDS011;39148;53.332;6.922;2023-02-03T16:46:45;27.02;;;4.50;;
53253;SDS011;39148;53.332;6.922;2023-02-03T16:49:30;25.65;;;4.60;;
53253;SDS011;39148;53.332;6.922;2023-02-03T16:52:15;24.52;;;4.75;;
53253;SDS011;39148;53.332;6.922;2023-02-03T16:54:41;26.83;;;4.43;;
53253;SDS011;39148;53.332;6.922;2023-02-03T16:57:06;22.55;;;3.80;;
53253;SDS011;39148;53.332;6.922;2023-02-03T16:59:33;23.02;;;4.32;;
53253;SDS011;39148;53.332;6.922;2023-02-03T17:01:59;21.00;;;3.70;;
53253;SDS011;39148;53.332;6.922;2023-02-03T17:04:25;21.52;;;3.63;;
53253;SDS011;39148;53.332;6.922;2023-02-03T17:06:51;26.42;;;4.32;;
53253;SDS011;39148;53.332;6.922;2023-02-03T17:09:17;21.45;;;3.80;;
53253;SDS011;39148;53.332;6.922;2023-02-03T17:11:46;25.63;;;4.22;;
53253;SDS011;39148;53.332;6.922;2023-02-03T17:14:12;21.27;;;3.42;;
53253;SDS011;39148;53.332;6.922;2023-02-03T17:16:38;26.98;;;5.55;;
53253;SDS011;39148;53.332;6.922;2023-02-03T17:19:04;19.83;;;4.30;;
53253;SDS011;39148;53.332;6.922;2023-02-03T17:21:30;22.98;;;4.72;;
53253;SDS011;39148;53.332;6.922;2023-02-03T17:23:57;19.75;;;3.85;;
53253;SDS011;39148;53.332;6.922;2023-02-03T17:26:23;19.20;;;3.55;;